Terminal Aerodrome Forecast
Issued by NWS

Home | Current Version | Previous Version | Text Only | Print | Product List | Glossary On
Versions: 1 2 3 4 5 6 7 8 9 10 11 12 13 14
000
FTUS43 KIND 221128
TAFHUF
TAF
KHUF 221128Z 2212/2312 18014G20KT P6SM SCT200 WS020/19040KT
     FM221500 17014G25KT P6SM BKN120 WS020/19035KT
     FM222100 18012G21KT P6SM SHRA OVC045 WS020/18030KT
     FM222300 25008KT P6SM SHRA OVC050 WS020/18030KT
     FM230200 31006KT 5SM SHRA BR OVC025
     FM230900 33006KT 5SM SHRA BR OVC008=

USA.gov is the U.S. government's official web portal to all federal, state and local government web resources and services.